Narita International Airport
RJAA : now visible

Airfield :











YOU CAN JOIN US ON...

 
LOGIN :

Register | Disclaimer

   EN    FR    IT 

 









Legend :    VFR   Marginal VFR   IFR   Intensive IFR   Very Intensive IFR
Visi :
Ceiling :
>= 8 km
>= 3000ft
5 to 8 km
1000 to 3000 ft
1500m to 5 km
500 to 1000 ft
800 to 1500m
200 to 500 ft
< 800m
< 200 ft
Symbols :   Thunderstorms  Fog  Heavy snow  Heavy precipitations  Wind > 20 kt






- Airport Elevation : 141 ft
- IATA code : NRT


RJAA - Narita International

CURRENT METAR :
  • 070200Z 06012KT 030V090 9999 FEW020 BKN/// 23/16 Q1009 BECMG 08012KT

EXPIRED METARs :
  • 070130Z 03012KT 360V060 9999 FEW020 BKN/// 23/17 Q1009 NOSIG
  • 070100Z 04011KT 010V080 9999 FEW020 BKN/// 23/16 Q1009 NOSIG
  • 070030Z 02013KT 9999 FEW015 SCT020 BKN/// 22/17 Q1009 NOSIG RMK 1CU015 4CU020 A2981
  • 070000Z 02012KT 9999 FEW015 BKN020 BKN/// 22/18 Q1009 NOSIG RMK 1CU015 5CU020 A2980
  • 062330Z 03012KT 9999 FEW015 BKN020 BKN/// 21/17 Q1009 NOSIG RMK 1CU015 5CU020 A2980

TAF TAF RJAA
Valid from the 07 at 00:00 until the 08 at 06:00 UTC


062305Z 0700/0806 03012KT 9999 FEW015 SCT040
BECMG 0704/0706 07010KT
BECMG 0708/0710 02005KT
BECMG 0800/0803 14010KT
RJJJ FIR / Asia



MET'MAP, your aeronautical weather chart ! - Copyright ORBIFLY December 2007 - Disclaimer

ORBIFLY MET'MAP TEAM :

Programming & Development : Alexandra Zaïnal
Concept & original design : Baudouin d'Aumeries
Assistance for programming : Marc-Olivier Méhu
Technical & hardware support : Manuel Goepfert

Contact : metmap@orbifly.com




SOURCES & CREDITS :

   NOAA       Earth
Advisory